createdAt,value
2023-05-14T00:00:39.656Z,100156.31
2023-05-14T00:01:36.606Z,100152.22
2023-05-14T00:02:33.556Z,100149.34
2023-05-14T00:03:31.559Z,100148.00
2023-05-14T00:04:28.628Z,100133.56
2023-05-14T00:05:25.697Z,100143.25
2023-05-14T00:06:22.656Z,100137.16
2023-05-14T00:07:19.538Z,100137.50
2023-05-14T00:08:16.440Z,100144.59
2023-05-14T00:09:13.538Z,100147.19
2023-05-14T00:10:10.796Z,100141.41
2023-05-14T00:11:09.247Z,100136.91
2023-05-14T00:12:06.518Z,100140.81
2023-05-14T00:13:03.362Z,100138.25
2023-05-14T00:14:00.239Z,100138.25
2023-05-14T00:14:57.197Z,100141.28
2023-05-14T00:15:54.233Z,100142.88
2023-05-14T00:16:51.156Z,100140.81
2023-05-14T00:17:48.325Z,100139.69
2023-05-14T00:18:45.221Z,100140.16
2023-05-14T00:19:43.034Z,100141.19
2023-05-14T00:20:39.918Z,100134.28
2023-05-14T00:21:36.868Z,100137.62
2023-05-14T00:22:34.697Z,100142.50
2023-05-14T00:23:31.685Z,100137.47
2023-05-14T00:24:28.675Z,100137.75
2023-05-14T00:25:25.830Z,100135.87
2023-05-14T00:26:22.780Z,100132.34
2023-05-14T00:27:19.759Z,100136.44
2023-05-14T00:28:16.826Z,100133.50
2023-05-14T00:29:13.642Z,100131.44
2023-05-14T00:30:10.954Z,100135.53
2023-05-14T00:31:07.876Z,100132.09
2023-05-14T00:32:05.102Z,100135.87
2023-05-14T00:33:02.127Z,100133.56
2023-05-14T00:33:59.097Z,100133.28
2023-05-14T00:34:56.017Z,100128.97
2023-05-14T00:35:52.960Z,100128.03
2023-05-14T00:36:51.616Z,100129.34
2023-05-14T00:37:48.571Z,100128.50
2023-05-14T00:38:45.499Z,100127.88
2023-05-14T00:39:42.501Z,100125.69
2023-05-14T00:40:39.618Z,100120.66
2023-05-14T00:41:36.513Z,100126.78
2023-05-14T00:42:33.401Z,100127.06
2023-05-14T00:43:30.715Z,100128.59
2023-05-14T00:44:27.644Z,100126.22
2023-05-14T00:45:24.588Z,100122.41
2023-05-14T00:46:22.822Z,100119.72
2023-05-14T00:47:19.919Z,100120.16
2023-05-14T00:48:16.976Z,100121.53
2023-05-14T00:49:13.840Z,100116.81
2023-05-14T00:50:11.458Z,100118.44
2023-05-14T00:51:08.440Z,100114.22
2023-05-14T00:52:05.507Z,100115.13
2023-05-14T00:53:02.546Z,100114.03
2023-05-14T00:53:59.498Z,100117.88
2023-05-14T00:54:56.797Z,100113.03
2023-05-14T00:55:53.699Z,100111.87
2023-05-14T00:56:51.138Z,100112.66
2023-05-14T00:57:48.139Z,100105.22
2023-05-14T00:58:45.176Z,100107.81
2023-05-14T00:59:42.864Z,100104.63
2023-05-14T01:00:41.100Z,100102.41
2023-05-14T01:01:38.262Z,100104.78
2023-05-14T01:02:35.240Z,100102.63
2023-05-14T01:03:32.707Z,100093.16
2023-05-14T01:04:29.865Z,100104.31
2023-05-14T01:05:30.078Z,100099.47
2023-05-14T01:06:36.011Z,100096.88
2023-05-14T01:07:59.693Z,100094.53
2023-05-14T01:09:14.703Z,100088.34
2023-05-14T01:10:14.422Z,100089.50
2023-05-14T01:11:12.147Z,100082.53
2023-05-14T01:12:34.958Z,100081.44
2023-05-14T01:13:44.509Z,100081.78
2023-05-14T01:14:57.456Z,100080.94
2023-05-14T01:15:57.219Z,100082.41
2023-05-14T01:16:59.376Z,100074.66
2023-05-14T01:18:05.834Z,100073.28
2023-05-14T01:19:03.266Z,100069.94
2023-05-14T01:20:00.738Z,100062.75
2023-05-14T01:20:57.714Z,100073.78
2023-05-14T01:21:54.696Z,100072.91
2023-05-14T01:22:51.625Z,100072.19
2023-05-14T01:23:48.616Z,100066.38
2023-05-14T01:24:45.649Z,100069.38
2023-05-14T01:25:42.576Z,100068.38
2023-05-14T01:26:39.598Z,100070.41
2023-05-14T01:27:43.356Z,100060.59
2023-05-14T01:28:40.367Z,100065.00
2023-05-14T01:29:39.496Z,100064.47
2023-05-14T01:30:38.140Z,100058.31
2023-05-14T01:31:37.196Z,100057.56
2023-05-14T01:32:34.224Z,100059.22
2023-05-14T01:33:33.796Z,100060.53
2023-05-14T01:34:31.573Z,100054.37
2023-05-14T01:35:30.194Z,100055.22
2023-05-14T01:36:28.257Z,100047.22
2023-05-14T01:37:26.363Z,100053.00
2023-05-14T01:38:23.953Z,100053.34
2023-05-14T01:39:21.209Z,100053.00
2023-05-14T01:40:18.154Z,100042.75
2023-05-14T01:41:15.262Z,100043.75
2023-05-14T01:42:12.256Z,100052.16
2023-05-14T01:43:09.270Z,100045.53
2023-05-14T01:44:06.392Z,100050.13
2023-05-14T01:45:03.535Z,100041.53
2023-05-14T01:46:02.656Z,100042.34
2023-05-14T01:46:59.540Z,100048.03
2023-05-14T01:47:56.609Z,100039.09
2023-05-14T01:48:53.530Z,100035.94
2023-05-14T01:49:50.668Z,100044.72
2023-05-14T01:50:47.692Z,100037.03
2023-05-14T01:51:44.652Z,100042.34
2023-05-14T01:52:41.696Z,100031.44
2023-05-14T01:53:38.652Z,100032.81
2023-05-14T01:54:35.553Z,100028.81
2023-05-14T01:55:32.411Z,100036.91
2023-05-14T01:56:29.312Z,100029.41
2023-05-14T01:57:26.335Z,100034.44
2023-05-14T01:58:23.272Z,100025.22
2023-05-14T01:59:20.213Z,100035.53
2023-05-14T02:00:17.302Z,100041.03
2023-05-14T02:01:14.262Z,100030.81
2023-05-14T02:02:11.179Z,100037.69
2023-05-14T02:03:08.084Z,100039.84
2023-05-14T02:04:05.232Z,100037.63
2023-05-14T02:05:02.677Z,100038.94
2023-05-14T02:06:00.477Z,100044.44
2023-05-14T02:06:57.408Z,100042.38
2023-05-14T02:07:54.295Z,100045.56
2023-05-14T02:08:51.249Z,100049.19
2023-05-14T02:09:48.211Z,100053.03
2023-05-14T02:10:45.129Z,100050.22
2023-05-14T02:11:42.032Z,100059.06
2023-05-14T02:12:38.898Z,100059.22
2023-05-14T02:13:36.473Z,100055.31
2023-05-14T02:14:33.462Z,100049.75
2023-05-14T02:15:30.475Z,100053.38
2023-05-14T02:16:27.497Z,100056.06
2023-05-14T02:17:25.919Z,100055.81
2023-05-14T02:18:22.901Z,100050.41
2023-05-14T02:19:19.811Z,100055.25
2023-05-14T02:20:16.855Z,100056.06
2023-05-14T02:21:13.833Z,100045.34
2023-05-14T02:22:10.857Z,100050.94
2023-05-14T02:23:07.954Z,100053.59
2023-05-14T02:24:04.935Z,100048.25
2023-05-14T02:25:01.954Z,100054.47
2023-05-14T02:25:58.763Z,100054.66
2023-05-14T02:26:55.871Z,100056.63
2023-05-14T02:27:52.757Z,100059.06
2023-05-14T02:28:49.734Z,100046.66
2023-05-14T02:29:46.625Z,100051.81
2023-05-14T02:30:43.575Z,100047.03
2023-05-14T02:31:40.682Z,100051.53
2023-05-14T02:32:37.731Z,100051.44
2023-05-14T02:33:34.845Z,100048.72
2023-05-14T02:34:33.839Z,100042.50
2023-05-14T02:35:30.754Z,100041.66
2023-05-14T02:36:27.758Z,100041.28
2023-05-14T02:37:24.641Z,100045.13
2023-05-14T02:38:21.787Z,100044.75
2023-05-14T02:39:18.715Z,100038.69
2023-05-14T02:40:16.017Z,100046.59
2023-05-14T02:41:12.918Z,100038.16
2023-05-14T02:42:09.833Z,100043.06
2023-05-14T02:43:06.953Z,100037.66
2023-05-14T02:44:03.961Z,100040.19
2023-05-14T02:45:01.195Z,100036.97
2023-05-14T02:45:58.117Z,100039.84
2023-05-14T02:46:55.154Z,100033.09
2023-05-14T02:47:52.099Z,100041.94
2023-05-14T02:48:49.236Z,100036.16
2023-05-14T02:49:46.136Z,100042.88
2023-05-14T02:50:43.044Z,100038.97
2023-05-14T02:51:40.144Z,100036.16
2023-05-14T02:52:37.062Z,100038.69
2023-05-14T02:53:34.095Z,100035.78
2023-05-14T02:54:31.044Z,100030.44
2023-05-14T02:55:27.876Z,100036.81
2023-05-14T02:56:24.804Z,100030.03
2023-05-14T02:57:21.878Z,100028.22
2023-05-14T02:58:19.373Z,100033.56
2023-05-14T02:59:25.093Z,100028.69
2023-05-14T03:00:22.963Z,100030.03
2023-05-14T03:01:20.401Z,100027.31
2023-05-14T03:02:18.021Z,100030.13
2023-05-14T03:03:15.461Z,100033.91
2023-05-14T03:04:12.871Z,100024.31
2023-05-14T03:05:09.758Z,100025.25
2023-05-14T03:06:06.865Z,100028.00
2023-05-14T03:07:03.801Z,100031.28
2023-05-14T03:08:01.157Z,100031.56
2023-05-14T03:08:58.060Z,100033.34
2023-05-14T03:09:55.040Z,100030.56
2023-05-14T03:10:52.016Z,100033.06
2023-05-14T03:11:48.899Z,100033.91
2023-05-14T03:12:45.926Z,100028.13
2023-05-14T03:13:42.857Z,100030.28
2023-05-14T03:14:39.745Z,100032.25
2023-05-14T03:15:36.674Z,100028.69
2023-05-14T03:16:33.671Z,100028.13
2023-05-14T03:17:30.631Z,100029.78
2023-05-14T03:18:28.686Z,100034.25
2023-05-14T03:19:25.837Z,100029.12
2023-05-14T03:20:24.877Z,100026.75
2023-05-14T03:21:21.900Z,100023.16
2023-05-14T03:22:18.909Z,100023.81
2023-05-14T03:23:15.874Z,100023.72
2023-05-14T03:24:12.766Z,100028.41
2023-05-14T03:25:09.929Z,100031.97
2023-05-14T03:26:06.946Z,100026.00
2023-05-14T03:27:04.040Z,100032.31
2023-05-14T03:28:00.970Z,100030.09
2023-05-14T03:28:57.937Z,100021.69
2023-05-14T03:29:54.899Z,100023.09
2023-05-14T03:30:51.846Z,100025.69
2023-05-14T03:31:50.147Z,100027.09
2023-05-14T03:32:47.188Z,100032.97
2023-05-14T03:33:44.138Z,100028.41
2023-05-14T03:34:41.276Z,100025.53
2023-05-14T03:35:38.101Z,100028.84
2023-05-14T03:36:36.478Z,100030.53
2023-05-14T03:37:33.368Z,100032.69
2023-05-14T03:38:30.297Z,100030.44
2023-05-14T03:39:27.219Z,100029.56
2023-05-14T03:40:24.342Z,100026.31
2023-05-14T03:41:22.117Z,100026.25
2023-05-14T03:42:18.997Z,100027.47
2023-05-14T03:43:16.561Z,100031.31
2023-05-14T03:44:13.723Z,100025.69
2023-05-14T03:45:10.864Z,100022.72
2023-05-14T03:46:07.756Z,100010.03
2023-05-14T03:47:04.970Z,100022.34
2023-05-14T03:48:02.053Z,100019.91
2023-05-14T03:48:58.970Z,100020.25
2023-05-14T03:49:57.140Z,100025.91
2023-05-14T03:50:54.216Z,100022.81
2023-05-14T03:51:51.343Z,100023.19
2023-05-14T03:52:48.515Z,100014.34
2023-05-14T03:53:45.695Z,100022.16
2023-05-14T03:54:42.576Z,100011.81
2023-05-14T03:55:39.477Z,100017.03
2023-05-14T03:56:36.336Z,100012.47
2023-05-14T03:57:33.236Z,100011.81
2023-05-14T03:58:30.128Z,100009.69
2023-05-14T03:59:27.044Z,100008.31
2023-05-14T04:00:24.248Z,100008.66
2023-05-14T04:01:21.395Z,100006.87
2023-05-14T04:02:18.327Z,100006.69
2023-05-14T04:03:15.435Z,100006.97
2023-05-14T04:04:12.484Z,100002.97
2023-05-14T04:05:09.889Z,100003.69
2023-05-14T04:06:06.957Z,100002.66
2023-05-14T04:07:04.002Z,100002.97
2023-05-14T04:08:01.143Z,99992.72
2023-05-14T04:08:58.160Z,99994.22
2023-05-14T04:09:55.015Z,99993.72
2023-05-14T04:10:51.862Z,99992.34
2023-05-14T04:11:48.736Z,99989.81
2023-05-14T04:12:45.678Z,99992.06
2023-05-14T04:13:42.616Z,99996.06
2023-05-14T04:14:39.624Z,100003.78
2023-05-14T04:15:39.470Z,99998.56
2023-05-14T04:16:36.524Z,99992.41
2023-05-14T04:17:34.955Z,99996.44
2023-05-14T04:18:35.564Z,99996.97
2023-05-14T04:19:32.465Z,100002.87
2023-05-14T04:20:29.337Z,100002.41
2023-05-14T04:21:26.176Z,100000.44
2023-05-14T04:22:23.118Z,100001.75
2023-05-14T04:23:20.885Z,100005.12
2023-05-14T04:24:17.882Z,100008.00
2023-05-14T04:25:14.741Z,100003.97
2023-05-14T04:26:11.715Z,100008.16
2023-05-14T04:27:08.681Z,100006.41
2023-05-14T04:28:05.804Z,100001.84
2023-05-14T04:29:03.577Z,99998.25
2023-05-14T04:30:00.539Z,100001.03
2023-05-14T04:30:57.456Z,99990.66
2023-05-14T04:31:54.486Z,99987.97
2023-05-14T04:32:51.826Z,99999.56
2023-05-14T04:33:48.731Z,99990.22
2023-05-14T04:34:47.034Z,99989.19
2023-05-14T04:35:45.596Z,99985.09
2023-05-14T04:36:42.441Z,99991.72
2023-05-14T04:37:39.355Z,99993.31
2023-05-14T04:38:36.282Z,100002.00
2023-05-14T04:39:33.173Z,99993.31
2023-05-14T04:40:31.530Z,99997.50
2023-05-14T04:41:28.479Z,99999.34
2023-05-14T04:42:25.747Z,99993.94
2023-05-14T04:43:22.609Z,99991.84
2023-05-14T04:44:19.512Z,99990.34
2023-05-14T04:45:17.066Z,99985.78
2023-05-14T04:46:14.110Z,99983.63
2023-05-14T04:47:11.531Z,99985.09
2023-05-14T04:48:08.764Z,99985.03
2023-05-14T04:49:05.758Z,99981.72
2023-05-14T04:50:02.978Z,99982.38
2023-05-14T04:50:59.850Z,99978.09
2023-05-14T04:51:56.794Z,99995.25
2023-05-14T04:52:56.092Z,99982.91
2023-05-14T04:53:52.993Z,99978.97
2023-05-14T04:54:50.273Z,99977.41
2023-05-14T04:55:47.178Z,99979.44
2023-05-14T04:56:44.184Z,99983.44
2023-05-14T04:57:41.152Z,99978.94
2023-05-14T04:58:38.131Z,99986.13
2023-05-14T04:59:35.037Z,99982.03
2023-05-14T05:00:32.214Z,99985.06
2023-05-14T05:01:29.212Z,99983.69
2023-05-14T05:02:26.209Z,99982.28
2023-05-14T05:03:23.264Z,99982.84
2023-05-14T05:04:20.437Z,99984.63
2023-05-14T05:05:17.374Z,99983.59
2023-05-14T05:06:14.273Z,99985.63
2023-05-14T05:07:11.133Z,99982.19
2023-05-14T05:08:08.054Z,99983.22
2023-05-14T05:09:05.083Z,99982.75
2023-05-14T05:10:02.322Z,99978.37
2023-05-14T05:10:59.214Z,99976.97
2023-05-14T05:11:56.117Z,99979.22
2023-05-14T05:12:52.982Z,99980.72
2023-05-14T05:13:49.839Z,99980.97
2023-05-14T05:14:46.700Z,99980.63
2023-05-14T05:15:44.144Z,99974.25
2023-05-14T05:16:41.237Z,99974.56
2023-05-14T05:17:38.289Z,99975.66
2023-05-14T05:18:35.314Z,99976.22
2023-05-14T05:19:42.419Z,99972.31
2023-05-14T05:20:39.749Z,99975.38
2023-05-14T05:21:36.745Z,99975.94
2023-05-14T05:22:33.682Z,99966.91
2023-05-14T05:23:30.592Z,99973.34
2023-05-14T05:24:27.502Z,99966.91
2023-05-14T05:25:24.500Z,99966.97
2023-05-14T05:26:22.326Z,99963.94
2023-05-14T05:27:21.213Z,99969.69
2023-05-14T05:28:18.815Z,99965.16
2023-05-14T05:29:16.151Z,99965.06
2023-05-14T05:30:13.539Z,99971.28
2023-05-14T05:31:10.595Z,99972.59
2023-05-14T05:32:07.847Z,99975.38
2023-05-14T05:33:04.992Z,99966.44
2023-05-14T05:34:03.018Z,99972.22
2023-05-14T05:34:59.998Z,99967.84
2023-05-14T05:35:56.881Z,99966.06
2023-05-14T05:36:53.896Z,99978.44
2023-05-14T05:37:50.865Z,99974.62
2023-05-14T05:38:47.767Z,99967.62
2023-05-14T05:39:44.612Z,99960.00
2023-05-14T05:40:41.577Z,99968.78
2023-05-14T05:41:38.356Z,99968.50
2023-05-14T05:42:35.317Z,99968.84
2023-05-14T05:43:33.763Z,99962.63
2023-05-14T05:44:30.945Z,99962.63
2023-05-14T05:45:27.898Z,99964.47
2023-05-14T05:46:24.952Z,99970.34
2023-05-14T05:47:21.920Z,99965.97
2023-05-14T05:48:18.916Z,99961.78
2023-05-14T05:49:15.847Z,99965.16
2023-05-14T05:50:12.785Z,99956.47
2023-05-14T05:51:09.777Z,99971.66
2023-05-14T05:52:06.892Z,99961.78
2023-05-14T05:53:04.342Z,99966.34
2023-05-14T05:54:01.304Z,99971.56
2023-05-14T05:54:58.214Z,99958.78
2023-05-14T05:55:55.158Z,99962.22
2023-05-14T05:56:52.355Z,99967.75
2023-05-14T05:57:49.224Z,99965.06
2023-05-14T05:58:46.156Z,99967.09
2023-05-14T05:59:43.291Z,99968.03
2023-05-14T06:00:40.173Z,99959.75
2023-05-14T06:01:37.271Z,99965.97
2023-05-14T06:02:34.161Z,99966.47
2023-05-14T06:03:31.102Z,99960.63
2023-05-14T06:04:28.146Z,99962.56
2023-05-14T06:05:25.096Z,99963.66
2023-05-14T06:06:22.160Z,99966.03
2023-05-14T06:07:19.298Z,99965.16
2023-05-14T06:08:16.376Z,99958.44
2023-05-14T06:09:13.597Z,99959.03
2023-05-14T06:10:10.936Z,99964.16
2023-05-14T06:11:08.501Z,99955.75
2023-05-14T06:12:05.913Z,99956.13
2023-05-14T06:13:02.812Z,99960.12
2023-05-14T06:13:59.721Z,99963.13
2023-05-14T06:14:58.074Z,99958.47
2023-05-14T06:15:54.934Z,99960.78
2023-05-14T06:16:51.864Z,99955.66
2023-05-14T06:17:49.221Z,99953.72
2023-05-14T06:18:46.670Z,99952.31
2023-05-14T06:19:43.637Z,99953.78
2023-05-14T06:20:41.678Z,99955.84
2023-05-14T06:21:38.576Z,99950.13
2023-05-14T06:22:35.438Z,99953.38
2023-05-14T06:23:32.419Z,99956.28
2023-05-14T06:24:29.291Z,99955.50
2023-05-14T06:25:26.215Z,99942.00
2023-05-14T06:26:23.630Z,99949.47
2023-05-14T06:27:20.459Z,99942.53
2023-05-14T06:28:17.302Z,99940.59
2023-05-14T06:29:14.204Z,99942.19
2023-05-14T06:30:11.808Z,99951.00
2023-05-14T06:31:08.717Z,99946.09
2023-05-14T06:32:06.059Z,99939.94
2023-05-14T06:33:03.018Z,99948.06
2023-05-14T06:33:59.955Z,99950.59
2023-05-14T06:34:56.933Z,99934.91
2023-05-14T06:35:53.834Z,99936.31
2023-05-14T06:36:50.700Z,99932.41
2023-05-14T06:37:47.660Z,99931.25
2023-05-14T06:38:44.496Z,99941.53
2023-05-14T06:39:46.724Z,99935.62
2023-05-14T06:40:43.636Z,99946.34
2023-05-14T06:41:40.524Z,99941.94
2023-05-14T06:42:37.409Z,99937.59
2023-05-14T06:43:34.331Z,99944.97
2023-05-14T06:44:31.474Z,99943.00
2023-05-14T06:45:28.355Z,99943.81
2023-05-14T06:46:25.227Z,99944.59
2023-05-14T06:47:22.326Z,99946.66
2023-05-14T06:48:19.643Z,99939.94
2023-05-14T06:49:16.800Z,99933.59
2023-05-14T06:50:13.788Z,99932.87
2023-05-14T06:51:11.148Z,99941.38
2023-05-14T06:52:08.284Z,99937.12
2023-05-14T06:53:05.170Z,99928.28
2023-05-14T06:54:02.164Z,99932.28
2023-05-14T06:54:59.054Z,99935.97
2023-05-14T06:55:56.528Z,99931.06
2023-05-14T06:56:54.085Z,99927.06
2023-05-14T06:57:51.121Z,99929.72
2023-05-14T06:58:48.195Z,99927.94
2023-05-14T06:59:45.106Z,99923.06
2023-05-14T07:00:43.117Z,99935.78
2023-05-14T07:01:41.011Z,99928.12
2023-05-14T07:02:38.301Z,99925.87
2023-05-14T07:03:35.138Z,99921.31
2023-05-14T07:04:32.181Z,99925.56
2023-05-14T07:05:29.432Z,99923.88
2023-05-14T07:06:26.293Z,99921.81
2023-05-14T07:07:23.304Z,99928.97
2023-05-14T07:08:20.200Z,99928.66
2023-05-14T07:09:17.107Z,99926.53
2023-05-14T07:10:13.974Z,99923.50
2023-05-14T07:11:10.864Z,99923.19
2023-05-14T07:12:08.403Z,99932.13
2023-05-14T07:13:05.882Z,99926.91
2023-05-14T07:14:02.754Z,99924.84
2023-05-14T07:14:59.610Z,99933.72
2023-05-14T07:15:56.751Z,99924.53
2023-05-14T07:16:53.693Z,99928.66
2023-05-14T07:17:50.808Z,99938.91
2023-05-14T07:18:47.697Z,99936.72
2023-05-14T07:19:44.712Z,99927.38
2023-05-14T07:20:41.609Z,99929.16
2023-05-14T07:21:38.463Z,99924.37
2023-05-14T07:22:35.335Z,99933.37
2023-05-14T07:23:33.242Z,99939.28
2023-05-14T07:24:30.170Z,99927.88
2023-05-14T07:25:27.034Z,99933.03
2023-05-14T07:26:24.716Z,99933.03
2023-05-14T07:27:21.645Z,99932.44
2023-05-14T07:28:18.572Z,99922.38
2023-05-14T07:29:15.540Z,99925.25
2023-05-14T07:30:12.652Z,99920.31
2023-05-14T07:31:09.723Z,99919.25
2023-05-14T07:32:06.770Z,99918.59
2023-05-14T07:33:03.801Z,99919.50
2023-05-14T07:34:00.683Z,99915.63
2023-05-14T07:34:57.603Z,99915.13
2023-05-14T07:35:54.463Z,99920.66
2023-05-14T07:36:51.375Z,99918.53
2023-05-14T07:37:48.363Z,99914.06
2023-05-14T07:38:45.284Z,99920.53
2023-05-14T07:39:42.290Z,99926.13
2023-05-14T07:40:39.158Z,99919.50
2023-05-14T07:41:36.005Z,99913.19
2023-05-14T07:42:36.409Z,99919.59
2023-05-14T07:43:34.109Z,99913.62
2023-05-14T07:44:31.144Z,99903.84
2023-05-14T07:45:28.089Z,99907.06
2023-05-14T07:46:26.033Z,99916.06
2023-05-14T07:47:23.015Z,99915.81
2023-05-14T07:48:19.893Z,99919.53
2023-05-14T07:49:16.778Z,99913.06
2023-05-14T07:50:13.759Z,99912.59
2023-05-14T07:51:10.714Z,99922.06
2023-05-14T07:52:07.628Z,99914.31
2023-05-14T07:53:04.523Z,99904.94
2023-05-14T07:54:01.538Z,99901.59
2023-05-14T07:54:58.450Z,99905.22
2023-05-14T07:55:55.304Z,99900.41
2023-05-14T07:56:52.385Z,99897.31
2023-05-14T07:57:49.334Z,99899.19
2023-05-14T07:58:46.365Z,99902.53
2023-05-14T07:59:43.234Z,99899.06
2023-05-14T08:00:40.180Z,99896.41
2023-05-14T08:01:39.359Z,99890.59
2023-05-14T08:02:36.625Z,99895.84
2023-05-14T08:03:34.292Z,99889.84
2023-05-14T08:04:31.405Z,99889.25
2023-05-14T08:05:28.413Z,99890.06
2023-05-14T08:06:27.801Z,99888.25
2023-05-14T08:07:24.948Z,99892.28
2023-05-14T08:08:21.910Z,99889.00
2023-05-14T08:09:18.902Z,99894.75
2023-05-14T08:10:15.840Z,99877.09
2023-05-14T08:11:12.955Z,99888.00
2023-05-14T08:12:09.969Z,99883.59
2023-05-14T08:13:06.879Z,99876.09
2023-05-14T08:14:03.736Z,99873.16
2023-05-14T08:15:00.730Z,99882.25
2023-05-14T08:15:57.658Z,99883.72
2023-05-14T08:16:54.658Z,99881.16
2023-05-14T08:17:51.904Z,99874.94
2023-05-14T08:18:48.980Z,99878.31
2023-05-14T08:19:45.918Z,99878.53
2023-05-14T08:20:42.924Z,99873.34
2023-05-14T08:21:39.878Z,99879.72
2023-05-14T08:22:36.825Z,99876.81
2023-05-14T08:23:33.700Z,99871.28
2023-05-14T08:24:30.749Z,99885.41
2023-05-14T08:25:27.636Z,99873.88
2023-05-14T08:26:24.536Z,99883.66
2023-05-14T08:27:21.820Z,99878.72
2023-05-14T08:28:18.721Z,99876.50
2023-05-14T08:29:16.762Z,99876.50
2023-05-14T08:30:14.176Z,99868.19
2023-05-14T08:31:11.165Z,99876.94
2023-05-14T08:32:22.217Z,99871.75
2023-05-14T08:33:20.560Z,99871.94
2023-05-14T08:34:17.881Z,99866.88
2023-05-14T08:35:14.759Z,99868.53
2023-05-14T08:36:11.703Z,99864.06
2023-05-14T08:37:08.640Z,99869.41
2023-05-14T08:38:05.710Z,99860.28
2023-05-14T08:39:02.690Z,99864.81
2023-05-14T08:39:59.641Z,99861.38
2023-05-14T08:41:00.047Z,99870.66
2023-05-14T08:41:58.378Z,99865.53
2023-05-14T08:42:57.120Z,99869.59
2023-05-14T08:44:18.785Z,99866.13
2023-05-14T08:45:20.329Z,99869.88
2023-05-14T08:46:17.860Z,99867.53
2023-05-14T08:47:16.238Z,99862.41
2023-05-14T08:48:16.273Z,99873.66
2023-05-14T08:49:23.377Z,99868.00
2023-05-14T08:50:22.972Z,99867.19
2023-05-14T08:51:20.672Z,99866.78
2023-05-14T08:52:18.698Z,99875.47
2023-05-14T08:53:15.596Z,99867.94
2023-05-14T08:54:15.576Z,99867.06
2023-05-14T08:55:13.303Z,99872.69
2023-05-14T08:56:10.697Z,99870.97
2023-05-14T08:57:10.313Z,99864.28
2023-05-14T08:58:07.299Z,99876.31
2023-05-14T08:59:05.163Z,99867.19
2023-05-14T09:00:08.455Z,99878.13
2023-05-14T09:01:05.900Z,99873.81
2023-05-14T09:02:05.213Z,99867.41
2023-05-14T09:03:02.554Z,99869.88
2023-05-14T09:04:01.717Z,99867.81
2023-05-14T09:05:00.308Z,99877.66
2023-05-14T09:06:00.014Z,99868.84
2023-05-14T09:06:57.196Z,99865.13
2023-05-14T09:07:54.077Z,99868.56
2023-05-14T09:08:50.966Z,99873.22
2023-05-14T09:09:48.090Z,99865.69
2023-05-14T09:10:45.063Z,99875.47
2023-05-14T09:11:42.899Z,99868.25
2023-05-14T09:12:39.814Z,99867.75
2023-05-14T09:13:39.755Z,99883.66
2023-05-14T09:14:36.760Z,99872.84
2023-05-14T09:15:35.336Z,99884.06
2023-05-14T09:16:32.395Z,99876.00
2023-05-14T09:17:29.460Z,99875.88
2023-05-14T09:18:26.505Z,99869.94
2023-05-14T09:19:23.902Z,99874.75
2023-05-14T09:20:21.177Z,99864.13
2023-05-14T09:21:19.275Z,99864.44
2023-05-14T09:22:18.002Z,99860.59
2023-05-14T09:23:14.914Z,99864.59
2023-05-14T09:24:21.215Z,99867.41
2023-05-14T09:25:18.215Z,99863.94
2023-05-14T09:26:19.093Z,99864.59
2023-05-14T09:27:22.461Z,99857.28
2023-05-14T09:28:21.452Z,99863.41
2023-05-14T09:29:18.509Z,99855.34
2023-05-14T09:30:16.796Z,99848.22
2023-05-14T09:31:13.936Z,99852.97
2023-05-14T09:32:11.395Z,99850.47
2023-05-14T09:33:10.684Z,99850.28
2023-05-14T09:34:07.832Z,99850.09
2023-05-14T09:35:18.513Z,99847.56
2023-05-14T09:36:15.653Z,99842.34
2023-05-14T09:37:12.537Z,99838.34
2023-05-14T09:38:09.623Z,99836.88
2023-05-14T09:39:07.113Z,99831.22
2023-05-14T09:40:09.423Z,99834.06
2023-05-14T09:41:06.374Z,99827.00
2023-05-14T09:42:03.591Z,99825.53
2023-05-14T09:43:02.075Z,99826.22
2023-05-14T09:43:59.001Z,99820.00
2023-05-14T09:44:56.298Z,99816.03
2023-05-14T09:45:53.637Z,99813.47
2023-05-14T09:46:51.377Z,99815.25
2023-05-14T09:47:48.772Z,99815.44
2023-05-14T09:48:46.316Z,99805.44
2023-05-14T09:49:43.257Z,99816.91
2023-05-14T09:50:46.936Z,99807.75
2023-05-14T09:51:43.920Z,99813.88
2023-05-14T09:52:40.922Z,99804.09
2023-05-14T09:53:38.333Z,99814.72
2023-05-14T09:54:35.634Z,99813.84
2023-05-14T09:55:32.533Z,99812.19
2023-05-14T09:56:29.474Z,99812.19
2023-05-14T09:57:27.161Z,99808.69
2023-05-14T09:58:24.217Z,99802.03
2023-05-14T09:59:21.165Z,99795.53
2023-05-14T10:00:18.931Z,99793.91
2023-05-14T10:01:19.426Z,99793.78
2023-05-14T10:02:38.925Z,99785.19
2023-05-14T10:03:36.549Z,99786.47
2023-05-14T10:04:34.257Z,99783.84
2023-05-14T10:05:33.413Z,99786.78
2023-05-14T10:06:37.463Z,99783.25
2023-05-14T10:07:40.134Z,99779.47
2023-05-14T10:08:41.911Z,99779.34
2023-05-14T10:09:40.385Z,99775.81
2023-05-14T10:10:37.797Z,99773.16
2023-05-14T10:11:37.801Z,99773.37
2023-05-14T10:12:37.594Z,99776.34
2023-05-14T10:13:38.484Z,99774.22
2023-05-14T10:14:44.773Z,99761.81
2023-05-14T10:15:49.648Z,99764.19
2023-05-14T10:16:51.282Z,99764.81
2023-05-14T10:17:50.488Z,99767.97
2023-05-14T10:18:52.315Z,99772.13
2023-05-14T10:19:54.969Z,99767.94
2023-05-14T10:20:57.971Z,99766.09
2023-05-14T10:22:00.613Z,99769.03
2023-05-14T10:22:58.754Z,99764.63
2023-05-14T10:23:56.053Z,99769.59
2023-05-14T10:24:53.416Z,99764.37
2023-05-14T10:25:50.375Z,99755.44
2023-05-14T10:26:47.435Z,99755.88
2023-05-14T10:27:44.520Z,99763.78
2023-05-14T10:28:41.756Z,99768.00
2023-05-14T10:29:38.802Z,99769.81
2023-05-14T10:30:35.707Z,99773.75
2023-05-14T10:31:56.310Z,99771.50
2023-05-14T10:33:10.353Z,99772.09
2023-05-14T10:34:41.332Z,99762.81
2023-05-14T10:36:07.820Z,99744.59
2023-05-14T10:37:05.776Z,99734.63
2023-05-14T10:38:11.093Z,99723.84
2023-05-14T10:39:10.332Z,99734.28
2023-05-14T10:40:10.241Z,99730.47
2023-05-14T10:41:18.212Z,99737.50
2023-05-14T10:42:28.516Z,99733.50
2023-05-14T10:43:31.072Z,99729.56
2023-05-14T10:44:28.479Z,99735.19
2023-05-14T10:45:25.561Z,99735.78
2023-05-14T10:46:22.777Z,99728.75
2023-05-14T10:47:20.759Z,99735.22
2023-05-14T10:48:18.039Z,99732.72
2023-05-14T10:49:14.954Z,99732.13
2023-05-14T10:50:14.369Z,99726.91
2023-05-14T10:51:12.120Z,99726.34
2023-05-14T10:52:09.713Z,99719.63
2023-05-14T10:53:11.635Z,99722.09
2023-05-14T10:54:08.643Z,99721.47
2023-05-14T10:55:13.120Z,99726.06
2023-05-14T10:56:14.209Z,99729.97
2023-05-14T10:57:12.008Z,99718.50
2023-05-14T10:58:10.600Z,99720.59
2023-05-14T10:59:08.231Z,99717.03
2023-05-14T11:00:09.218Z,99726.00
2023-05-14T11:01:07.615Z,99731.41
2023-05-14T11:02:06.221Z,99736.00
2023-05-14T11:03:05.296Z,99726.63
2023-05-14T11:04:03.576Z,99728.28
2023-05-14T11:05:00.556Z,99735.22
2023-05-14T11:05:57.502Z,99733.56
2023-05-14T11:06:54.416Z,99730.44
2023-05-14T11:07:52.834Z,99728.16
2023-05-14T11:08:51.620Z,99731.34
2023-05-14T11:09:48.557Z,99729.47
2023-05-14T11:10:47.291Z,99723.41
2023-05-14T11:11:59.956Z,99726.16
2023-05-14T11:12:58.576Z,99722.16
2023-05-14T11:13:55.641Z,99721.06